Overview Statistics Trail Chart Weather Telemetry Raw packets
 

This is the latest recevied weather packets stored in our database for station/object DF1GD-10. If no packets are shown the sender has not sent any weather packets the latest 10 day(s).

<< 24 25 26 27 28 29 30 >>
Time Temp. Humidity Pressure Rain* Wind** Luminosity Snow
1788123146 18.33° C 53% 1012.9 hPa - - - -
1788122246 18.33° C 52% 1013 hPa - - - -
1788121345 18.33° C 52% 1013.2 hPa - - - -
1788120445 19.44° C 49% 1013 hPa - - - -
1788119545 20° C 47% 1013.1 hPa - - - -
1788118645 20.56° C 45% 1013 hPa - - - -
1788117745 20.56° C 44% 1013 hPa - - - -
1788116845 21.11° C 44% 1013.1 hPa - - - -
1788115945 21.11° C 43% 1013 hPa - - - -
1788115044 21.67° C 40% 1013 hPa - - - -
1788114144 22.22° C 39% 1012.9 hPa - - - -
1788113244 23.33° C 37% 1013 hPa - - - -
1788112344 23.33° C 33% 1013.1 hPa - - - -
1788111444 24.44° C 32% 1013.2 hPa - - - -
1788110546 25° C 30% 1013.4 hPa - - - -
1788109644 25.56° C 28% 1013.4 hPa - - - -
1788108743 27.22° C 26% 1013.3 hPa - - - -
1788107843 27.22° C 27% 1013.4 hPa - - - -
1788106943 26.11° C 28% 1013.6 hPa - - - -
1788106043 27.78° C 26% 1013.8 hPa - - - -
1788105143 27.22° C 28% 1013.7 hPa - - - -
1788104243 26.11° C 29% 1013.8 hPa - - - -
1788103343 25.56° C 34% 1014 hPa - - - -
1788102442 25.56° C 32% 1014.1 hPa - - - -
1788101542 26.67° C 32% 1014.2 hPa - - - -

* Rain since midnight (hover to see other rain measurements)
** Current wind speed in m/s (hover to see current wind gust speed)